Time;durP1;ratioP1;P1;durP2;ratioP2;P2;SDS_P1;SDS_P2;PMS_P1;PMS_P2;Temp;Humidity;BMP_temperature;BMP_pressure;BME280_temperature;BME280_humidity;BME280_pressure;Samples;Min_cycle;Max_cycle;Signal;HPM_P1;HPM_P2
2023/10/17 00:01:32;;;;;;;3.27;2.83;;;;;;;5.51;100.00;98301.13;5073497;28;20642;-75
2023/10/17 00:04:24;;;;;;;4.93;3.30;;;;;;;5.49;100.00;98300.50;5073841;28;20227;-75
2023/10/17 00:06:53;;;;;;;3.77;3.37;;;;;;;5.42;100.00;98295.13;5073784;28;20188;-75
2023/10/17 00:09:23;;;;;;;3.60;3.30;;;;;;;5.47;100.00;98287.50;5073783;28;20615;-75
2023/10/17 00:11:58;;;;;;;4.10;3.30;;;;;;;5.46;100.00;98285.88;5073899;28;20201;-75
2023/10/17 00:14:35;;;;;;;3.23;2.93;;;;;;;5.51;100.00;98287.94;5057260;28;20262;-75
2023/10/17 00:17:04;;;;;;;3.30;3.00;;;;;;;5.51;100.00;98277.41;5074134;28;20625;-75
2023/10/17 00:19:32;;;;;;;3.40;3.10;;;;;;;5.43;100.00;98269.59;5073291;28;20228;-75
2023/10/17 00:22:02;;;;;;;4.17;3.13;;;;;;;5.44;100.00;98265.97;5073676;28;20628;-75
2023/10/17 00:24:29;;;;;;;4.13;3.20;;;;;;;5.31;100.00;98255.22;5073889;28;20549;-75
2023/10/17 00:26:55;;;;;;;3.50;3.20;;;;;;;5.36;100.00;98247.59;5073496;28;20204;-75
2023/10/17 00:29:22;;;;;;;3.17;2.87;;;;;;;5.30;100.00;98245.69;5074646;28;20208;-75
2023/10/17 00:31:48;;;;;;;5.47;3.20;;;;;;;5.28;100.00;98237.13;5073265;28;20212;-75
2023/10/17 00:34:16;;;;;;;3.50;3.20;;;;;;;5.27;100.00;98227.59;5073217;28;20555;-75
2023/10/17 00:36:50;;;;;;;3.00;2.70;;;;;;;5.33;100.00;98222.41;5073184;28;20574;-75
2023/10/17 00:39:22;;;;;;;3.53;3.10;;;;;;;5.36;100.00;98229.13;5072971;28;20574;-75
2023/10/17 00:41:52;;;;;;;3.50;3.20;;;;;;;5.22;100.00;98229.94;5075358;28;20212;-75
2023/10/17 00:44:30;;;;;;;3.93;3.27;;;;;;;5.24;100.00;98227.97;5078473;28;20207;-75
2023/10/17 00:46:56;;;;;;;4.43;3.20;;;;;;;5.12;100.00;98230.22;5077536;28;20192;-75
2023/10/17 00:49:24;;;;;;;3.77;3.07;;;;;;;5.07;100.00;98227.28;5077967;28;20204;-75
2023/10/17 00:51:52;;;;;;;3.53;2.80;;;;;;;5.02;100.00;98218.31;5077450;28;20204;-75
2023/10/17 00:54:20;;;;;;;3.13;2.83;;;;;;;5.02;100.00;98218.31;5077433;28;20204;-75
2023/10/17 00:56:48;;;;;;;3.20;2.70;;;;;;;4.98;100.00;98217.03;5077029;28;20690;-75
2023/10/17 00:59:15;;;;;;;4.63;3.10;;;;;;;4.95;100.00;98214.75;5077196;28;20285;-75
2023/10/17 01:01:42;;;;;;;3.30;3.00;;;;;;;4.88;100.00;98216.47;5077105;28;20261;-75
2023/10/17 01:04:13;;;;;;;3.90;3.00;;;;;;;4.82;100.00;98207.47;5077190;28;20227;-75
2023/10/17 01:06:41;;;;;;;3.67;2.70;;;;;;;4.82;100.00;98207.47;5077879;28;20200;-75
2023/10/17 01:09:17;;;;;;;3.17;2.93;;;;;;;4.81;100.00;98211.09;5077131;28;20220;-75
2023/10/17 01:11:45;;;;;;;5.33;2.80;;;;;;;4.77;100.00;98199.28;5077136;28;20287;-75
2023/10/17 01:14:18;;;;;;;3.23;2.87;;;;;;;4.76;100.00;98199.47;5077017;28;20282;-73
2023/10/17 01:16:46;;;;;;;3.17;2.83;;;;;;;4.81;100.00;98205.00;5077021;28;20239;-73
2023/10/17 01:19:19;;;;;;;3.90;2.53;;;;;;;4.82;100.00;98214.53;5076792;28;20228;-75
2023/10/17 01:21:45;;;;;;;5.23;2.80;;;;;;;4.83;100.00;98209.09;5076955;28;20323;-75
2023/10/17 01:24:12;;;;;;;3.27;2.80;;;;;;;4.77;100.00;98215.09;5077914;28;20204;-75
2023/10/17 01:26:39;;;;;;;3.37;2.70;;;;;;;4.68;100.00;98208.25;5076779;28;20204;-75
2023/10/17 01:29:10;;;;;;;3.23;2.77;;;;;;;4.68;100.00;98215.34;5076305;28;20702;-75
2023/10/17 01:31:38;;;;;;;3.87;2.97;;;;;;;4.60;100.00;98203.06;5076723;28;20216;-75
2023/10/17 01:34:08;;;;;;;3.50;2.70;;;;;;;4.63;100.00;98207.97;5076713;28;20231;-75
2023/10/17 01:36:37;;;;;;;3.20;2.90;;;;;;;4.61;100.00;98209.16;5076431;28;20240;-75
2023/10/17 01:39:06;;;;;;;2.97;2.57;;;;;;;4.60;100.00;98215.41;5076072;28;20601;-75
2023/10/17 01:41:33;;;;;;;3.07;2.57;;;;;;;4.60;100.00;98202.22;5076512;28;20209;-75
2023/10/17 01:44:01;;;;;;;5.83;2.67;;;;;;;4.62;100.00;98203.69;5077261;28;20243;-75
2023/10/17 01:46:28;;;;;;;3.13;2.47;;;;;;;4.56;100.00;98201.78;5076774;28;20258;-75
2023/10/17 01:48:55;;;;;;;2.73;2.53;;;;;;;4.60;100.00;98199.59;5076254;28;20228;-75
2023/10/17 01:51:25;;;;;;;2.93;2.70;;;;;;;4.59;100.00;98197.97;5076250;28;20204;-75
2023/10/17 01:53:52;;;;;;;4.40;2.93;;;;;;;4.58;100.00;98194.53;5075317;28;20694;-75
2023/10/17 01:56:21;;;;;;;2.93;2.67;;;;;;;4.46;100.00;98197.75;5076240;28;20204;-75
2023/10/17 01:58:49;;;;;;;3.67;2.60;;;;;;;4.39;100.00;98194.19;5076097;28;20274;-75
2023/10/17 02:01:24;;;;;;;3.10;2.60;;;;;;;4.39;100.00;98199.47;5075862;28;20293;-75
2023/10/17 02:03:52;;;;;;;4.03;2.53;;;;;;;4.34;100.00;98192.09;5075916;28;20670;-75
2023/10/17 02:06:22;;;;;;;3.63;2.80;;;;;;;4.30;100.00;98187.38;5075744;28;20290;-75
2023/10/17 02:08:49;;;;;;;4.90;2.53;;;;;;;4.25;100.00;98185.25;5076098;28;20220;-75
2023/10/17 02:11:23;;;;;;;3.53;2.73;;;;;;;4.20;100.00;98184.16;5076010;28;20291;-75
2023/10/17 02:13:56;;;;;;;3.23;2.87;;;;;;;4.25;100.00;98181.81;5076341;28;20204;-75
2023/10/17 02:16:24;;;;;;;4.67;3.00;;;;;;;4.28;100.00;98181.44;5076154;28;20535;-75
2023/10/17 02:18:50;;;;;;;3.90;2.70;;;;;;;4.38;100.00;98185.47;5075890;28;20224;-75
2023/10/17 02:21:17;;;;;;;2.83;2.63;;;;;;;4.34;100.00;98184.19;5075366;28;20295;-75
2023/10/17 02:23:49;;;;;;;3.47;2.87;;;;;;;4.30;100.00;98190.78;5075671;28;20215;-75
2023/10/17 02:26:22;;;;;;;3.27;2.80;;;;;;;4.24;100.00;98183.63;5075823;28;20199;-75
2023/10/17 02:28:59;;;;;;;3.13;2.90;;;;;;;4.21;100.00;98191.06;5076293;28;20217;-75
2023/10/17 02:31:29;;;;;;;2.63;2.43;;;;;;;4.33;100.00;98187.81;5075679;28;20228;-75
2023/10/17 02:33:56;;;;;;;3.03;2.77;;;;;;;4.31;100.00;98189.81;5075650;28;20201;-75
2023/10/17 02:36:23;;;;;;;3.13;2.83;;;;;;;4.37;100.00;98201.44;5075865;28;20206;-75
2023/10/17 02:38:50;;;;;;;2.87;2.67;;;;;;;4.30;100.00;98206.59;5075345;28;20221;-75
2023/10/17 02:41:19;;;;;;;4.83;2.60;;;;;;;4.27;100.00;98216.66;5075136;28;20200;-75
2023/10/17 02:43:54;;;;;;;3.80;3.20;;;;;;;4.23;100.00;98215.34;5075268;28;20235;-75
2023/10/17 02:46:26;;;;;;;3.87;2.90;;;;;;;4.28;100.00;98213.00;5075197;28;20209;-75
2023/10/17 02:48:53;;;;;;;3.77;3.03;;;;;;;4.29;100.00;98212.84;5075216;28;20217;-75
2023/10/17 02:51:33;;;;;;;2.87;2.63;;;;;;;4.25;100.00;98221.28;5075163;28;20210;-75
2023/10/17 02:54:05;;;;;;;2.97;2.67;;;;;;;4.32;100.00;98224.84;5075383;28;20185;-75
2023/10/17 02:56:36;;;;;;;2.93;2.63;;;;;;;4.22;100.00;98219.81;5075390;28;20268;-75
2023/10/17 02:59:06;;;;;;;4.83;3.20;;;;;;;4.26;100.00;98215.84;5075441;28;20604;-75
2023/10/17 03:01:37;;;;;;;3.77;3.07;;;;;;;4.20;100.00;98213.91;5074727;28;20621;-75
2023/10/17 03:04:09;;;;;;;4.50;2.87;;;;;;;4.21;100.00;98212.09;5074494;28;20184;-75
2023/10/17 03:06:42;;;;;;;3.50;3.13;;;;;;;4.28;100.00;98211.22;5074464;28;20192;-75
2023/10/17 03:09:33;;;;;;;3.53;3.00;;;;;;;4.21;100.00;98212.91;5074570;28;20266;-75
2023/10/17 03:12:07;;;;;;;3.40;3.07;;;;;;;4.02;100.00;98199.41;5074444;28;20228;-75
2023/10/17 03:14:39;;;;;;;3.97;2.80;;;;;;;4.05;100.00;98199.03;5074728;28;20184;-75
2023/10/17 03:17:09;;;;;;;4.00;3.37;;;;;;;4.12;100.00;98202.63;5074714;28;20246;-75
2023/10/17 03:19:36;;;;;;;3.37;3.07;;;;;;;4.16;100.00;98185.50;5074519;28;20274;-75
2023/10/17 03:22:16;;;;;;;3.70;3.07;;;;;;;4.13;100.00;98180.56;5074557;28;20291;-75
2023/10/17 03:24:44;;;;;;;3.57;3.27;;;;;;;4.07;100.00;98179.47;5074430;28;20219;-75
2023/10/17 03:27:11;;;;;;;4.03;3.20;;;;;;;4.18;100.00;98186.13;5074061;28;20212;-75
2023/10/17 03:29:42;;;;;;;3.47;3.07;;;;;;;4.15;100.00;98192.56;5074224;28;20207;-75
2023/10/17 03:32:11;;;;;;;3.97;3.20;;;;;;;4.05;100.00;98197.25;5073967;28;20357;-75
2023/10/17 03:34:38;;;;;;;4.30;3.00;;;;;;;4.10;100.00;98194.06;5073738;28;20211;-75
2023/10/17 03:39:51;;;;;;;3.60;3.30;;;;;;;4.18;100.00;98194.03;5073644;28;20220;-75
2023/10/17 03:42:30;;;;;;;4.73;3.33;;;;;;;4.20;100.00;98186.78;5073702;28;20196;-75
2023/10/17 03:44:56;;;;;;;3.03;2.73;;;;;;;4.08;100.00;98191.63;5073799;28;20569;-75
2023/10/17 03:47:23;;;;;;;3.90;3.40;;;;;;;4.18;100.00;98186.97;5074035;28;20227;-75
2023/10/17 03:49:54;;;;;;;3.60;3.20;;;;;;;4.20;100.00;98182.31;5074070;28;20201;-75
2023/10/17 03:52:22;;;;;;;4.40;3.30;;;;;;;4.29;100.00;98191.00;5073967;28;20193;-75
2023/10/17 03:54:48;;;;;;;3.57;2.97;;;;;;;4.28;100.00;98190.16;5073824;28;20204;-75
2023/10/17 03:57:16;;;;;;;7.00;2.97;;;;;;;4.29;100.00;98191.00;5073612;28;20311;-75
2023/10/17 03:59:51;;;;;;;4.40;3.40;;;;;;;4.32;100.00;98188.81;5073993;28;20228;-75
2023/10/17 04:02:20;;;;;;;3.50;3.20;;;;;;;4.34;100.00;98183.38;5073958;28;20192;-75
2023/10/17 04:04:52;;;;;;;3.30;3.00;;;;;;;4.33;100.00;98179.94;5073600;28;20200;-75
2023/10/17 04:07:22;;;;;;;3.20;3.00;;;;;;;4.32;100.00;98182.72;5073612;28;20243;-75
2023/10/17 04:09:54;;;;;;;4.60;2.93;;;;;;;4.33;100.00;98182.56;5073028;28;20208;-75
2023/10/17 04:12:23;;;;;;;5.83;3.30;;;;;;;4.22;100.00;98179.53;5074441;28;20276;-75
2023/10/17 04:14:57;;;;;;;4.43;3.20;;;;;;;4.28;100.00;98182.28;5073737;28;20208;-75
2023/10/17 04:17:27;;;;;;;3.40;2.93;;;;;;;4.36;100.00;98184.00;5073235;28;20262;-75
2023/10/17 04:19:58;;;;;;;3.50;3.20;;;;;;;4.23;100.00;98173.25;5073492;28;20262;-75
2023/10/17 04:22:29;;;;;;;7.57;3.33;;;;;;;4.39;100.00;98184.47;5074387;28;20185;-75
2023/10/17 04:25:00;;;;;;;3.50;2.93;;;;;;;4.41;100.00;98182.50;5073334;28;20239;-75
2023/10/17 04:27:31;;;;;;;2.90;2.53;;;;;;;4.43;100.00;98180.50;5073438;28;20707;-75
2023/10/17 04:29:58;;;;;;;3.37;3.07;;;;;;;4.35;100.00;98172.69;5073602;28;20491;-75
2023/10/17 04:32:28;;;;;;;4.07;3.63;;;;;;;4.32;100.00;98169.56;5073100;28;20675;-75
2023/10/17 04:34:55;;;;;;;3.90;2.83;;;;;;;4.36;100.00;98169.06;5073463;28;20201;-75
2023/10/17 04:37:31;;;;;;;4.40;2.60;;;;;;;4.36;100.00;98171.69;5072992;28;20710;-75
2023/10/17 04:40:20;;;;;;;4.97;3.07;;;;;;;4.36;100.00;98163.78;5073173;28;20208;-75
2023/10/17 04:43:31;;;;;;;4.23;3.00;;;;;;;4.28;100.00;98150.69;5072927;28;20205;-75
2023/10/17 04:45:44;;;;;;;3.73;2.57;;;;;;;4.33;100.00;98148.34;5072866;28;20244;-75
2023/10/17 04:48:11;;;;;;;4.00;3.23;;;;;;;4.41;100.00;98144.81;5072912;28;20221;-75
2023/10/17 04:50:45;;;;;;;3.97;3.13;;;;;;;4.44;100.00;98147.91;5072928;28;20204;-76
2023/10/17 04:53:25;;;;;;;4.87;3.43;;;;;;;4.51;100.00;98145.38;5073689;28;20189;-75
2023/10/17 04:56:11;;;;;;;5.33;3.17;;;;;;;4.60;100.00;98141.69;5073557;28;20219;-75
2023/10/17 04:58:40;;;;;;;4.50;3.20;;;;;;;4.62;100.00;98142.31;5073052;28;20254;-76
2023/10/17 05:01:32;;;;;;;4.93;3.03;;;;;;;4.62;100.00;98142.31;5072719;28;20299;-75
2023/10/17 05:03:57;;;;;;;4.43;3.07;;;;;;;4.69;100.00;98137.97;5073100;28;20210;-75
2023/10/17 05:06:51;;;;;;;3.43;2.70;;;;;;;4.63;100.00;98136.06;5072813;28;20223;-75
2023/10/17 06:17:49;;;;;;;5.47;4.23;;;;;;;5.17;100.00;98169.06;5075661;28;20207;-75
2023/10/17 06:20:16;;;;;;;6.77;4.93;;;;;;;5.10;100.00;98168.97;5075366;28;20224;-75
2023/10/17 06:28:27;;;;;;;5.87;4.67;;;;;;;5.24;100.00;98176.06;4993804;28;20251;-75
2023/10/17 06:33:35;;;;;;;5.40;3.97;;;;;;;5.35;100.00;98178.25;5074402;28;20256;-76
2023/10/17 06:36:13;;;;;;;6.20;4.23;;;;;;;5.44;100.00;98181.59;5075171;28;20201;-75
2023/10/17 06:38:46;;;;;;;4.90;3.73;;;;;;;5.49;100.00;98181.84;5074713;28;20267;-76
2023/10/17 06:41:27;;;;;;;6.17;4.30;;;;;;;5.55;100.00;98194.28;5075038;28;20210;-75
2023/10/17 06:43:54;;;;;;;5.57;4.07;;;;;;;5.57;100.00;98182.56;5075406;28;20243;-76
2023/10/17 06:46:29;;;;;;;5.93;4.57;;;;;;;5.51;100.00;98185.94;5074966;28;20204;-75
2023/10/17 06:48:57;;;;;;;6.57;3.97;;;;;;;5.48;100.00;98194.22;5074902;28;20254;-75
2023/10/17 06:51:36;;;;;;;5.90;4.80;;;;;;;5.58;100.00;98194.78;5074517;28;20702;-75
2023/10/17 06:54:12;;;;;;;6.63;4.27;;;;;;;5.61;100.00;98204.13;5074713;28;20279;-75
2023/10/17 06:56:44;;;;;;;7.77;4.30;;;;;;;5.68;100.00;98199.75;5074817;28;20188;-75
2023/10/17 06:59:33;;;;;;;5.23;4.10;;;;;;;5.85;100.00;98188.00;5074766;28;20237;-75
2023/10/17 07:02:16;;;;;;;5.73;4.30;;;;;;;5.80;100.00;98178.03;5075287;28;20542;-76
2023/10/17 07:04:44;;;;;;;6.73;4.47;;;;;;;5.81;100.00;98174.38;5074897;28;20199;-76
2023/10/17 07:07:10;;;;;;;8.73;4.53;;;;;;;5.78;100.00;98177.34;5074745;28;20201;-76
2023/10/17 07:09:38;;;;;;;5.77;4.47;;;;;;;5.90;100.00;98181.19;5074827;28;20228;-76
2023/10/17 07:12:13;;;;;;;7.70;5.03;;;;;;;5.95;100.00;98177.97;5074448;28;20204;-76
2023/10/17 07:14:42;;;;;;;6.23;5.07;;;;;;;6.08;100.00;98178.09;5074572;28;20188;-76
2023/10/17 07:17:17;;;;;;;6.70;4.57;;;;;;;6.15;100.00;98171.88;5074417;28;20235;-75
2023/10/17 07:19:47;;;;;;;6.33;4.70;;;;;;;6.21;100.00;98170.31;5074555;28;20254;-76
2023/10/17 07:22:15;;;;;;;5.00;4.30;;;;;;;6.20;100.00;98169.50;5074177;28;20208;-76
2023/10/17 07:24:44;;;;;;;6.63;3.93;;;;;;;6.22;100.00;98164.84;5074396;28;20215;-76
2023/10/17 07:27:26;;;;;;;5.53;4.07;;;;;;;6.36;100.00;98168.44;5074318;28;20229;-76
2023/10/17 07:29:59;;;;;;;7.10;4.50;;;;;;;6.38;100.00;98174.34;5074544;28;20204;-76
2023/10/17 07:32:32;;;;;;;7.20;4.70;;;;;;;6.40;100.00;98167.88;5074551;28;20192;-76
2023/10/17 07:34:58;;;;;;;8.83;5.00;;;;;;;6.45;100.00;98157.56;5073875;28;20295;-76
2023/10/17 07:37:25;;;;;;;7.00;4.77;;;;;;;6.53;100.00;98159.25;5074419;28;20590;-76
2023/10/17 07:40:15;;;;;;;5.97;4.83;;;;;;;6.57;100.00;98165.78;5074019;28;20699;-76
2023/10/17 07:42:44;;;;;;;8.47;5.37;;;;;;;6.60;100.00;98171.47;5074175;28;20189;-76
2023/10/17 07:45:15;;;;;;;8.87;5.20;;;;;;;6.59;100.00;98169.03;5073823;28;20689;-76
2023/10/17 07:47:43;;;;;;;6.63;5.13;;;;;;;6.66;100.00;98162.78;5073901;28;20232;-76
2023/10/17 07:50:13;;;;;;;6.90;5.17;;;;;;;6.68;100.00;98162.59;5073630;28;20201;-76
2023/10/17 07:52:43;;;;;;;6.43;4.87;;;;;;;6.72;100.00;98161.22;5073219;28;20184;-76
2023/10/17 07:55:22;;;;;;;7.57;5.50;;;;;;;6.84;100.00;98163.13;5073688;28;20196;-76
2023/10/17 07:57:51;;;;;;;9.10;5.07;;;;;;;6.92;100.00;98159.53;5073535;28;20228;-76
2023/10/17 08:00:27;;;;;;;8.07;5.27;;;;;;;6.87;100.00;98152.19;5073529;28;20232;-76
2023/10/17 08:02:55;;;;;;;5.67;4.73;;;;;;;6.86;100.00;98153.19;5073667;28;20693;-76
2023/10/17 08:05:26;;;;;;;6.10;4.77;;;;;;;7.15;100.00;98150.31;5073739;28;20202;-75
2023/10/17 08:08:03;;;;;;;6.80;4.93;;;;;;;7.08;100.00;98149.47;5073753;28;20228;-75
2023/10/17 08:10:33;;;;;;;10.47;5.07;;;;;;;7.30;100.00;98156.31;5073881;28;20189;-75
2023/10/17 08:13:00;;;;;;;8.80;5.47;;;;;;;7.15;100.00;98149.50;5073756;28;20300;-75
2023/10/17 08:15:32;;;;;;;5.23;4.73;;;;;;;7.13;100.00;98147.06;5073710;28;20602;-75
2023/10/17 08:17:59;;;;;;;7.43;5.20;;;;;;;7.26;100.00;98147.13;5073772;28;20225;-75
2023/10/17 08:20:45;;;;;;;8.53;5.17;;;;;;;7.35;100.00;98150.44;5073473;28;20695;-75
2023/10/17 08:23:11;;;;;;;8.13;5.43;;;;;;;7.31;100.00;98146.53;5074364;28;20211;-75
2023/10/17 08:25:52;;;;;;;6.83;5.50;;;;;;;7.43;100.00;98144.97;5073278;28;20228;-75
2023/10/17 08:28:31;;;;;;;9.40;6.00;;;;;;;7.56;100.00;98139.75;5073123;28;20220;-75
2023/10/17 08:31:05;;;;;;;6.73;5.40;;;;;;;7.52;100.00;98139.31;5072789;28;20651;-75
2023/10/17 08:33:36;;;;;;;8.10;6.70;;;;;;;7.67;100.00;98145.28;5073003;28;20632;-75
2023/10/17 08:36:03;;;;;;;8.00;6.10;;;;;;;7.48;100.00;98150.50;5073417;28;20199;-75
2023/10/17 08:38:32;;;;;;;8.07;6.30;;;;;;;7.80;100.00;98149.78;5073267;28;20264;-75
2023/10/17 08:41:05;;;;;;;10.00;6.60;;;;;;;7.73;100.00;98154.22;5073472;28;20560;-75
2023/10/17 08:43:32;;;;;;;11.10;6.80;;;;;;;7.72;100.00;98147.31;5073861;28;20185;-76
2023/10/17 08:45:59;;;;;;;8.30;6.73;;;;;;;7.72;100.00;98142.03;5072814;28;20677;-75
2023/10/17 08:48:26;;;;;;;11.13;7.43;;;;;;;7.79;100.00;98143.66;5073645;28;20582;-75
2023/10/17 08:50:57;;;;;;;9.37;6.77;;;;;;;8.04;100.00;98150.06;5073092;28;20254;-74
2023/10/17 08:53:25;;;;;;;12.57;8.30;;;;;;;8.19;100.00;98155.19;5072000;28;20210;-74
2023/10/17 08:55:52;;;;;;;12.57;7.43;;;;;;;7.98;100.00;98142.94;5072624;28;20660;-74
2023/10/17 08:58:24;;;;;;;9.70;7.40;;;;;;;8.08;100.00;98151.31;5073345;28;20250;-74
2023/10/17 09:00:56;;;;;;;8.43;7.27;;;;;;;8.01;100.00;98147.00;5072536;28;20721;-74
2023/10/17 09:03:31;;;;;;;9.77;7.40;;;;;;;8.18;100.00;98145.59;5075535;28;20242;-74
2023/10/17 09:06:07;;;;;;;12.63;7.47;;;;;;;8.15;100.00;98138.88;5077008;28;20192;-74
2023/10/17 09:08:49;;;;;;;9.60;7.80;;;;;;;8.32;100.00;98144.66;5077161;28;20224;-74
2023/10/17 09:11:15;;;;;;;10.27;7.90;;;;;;;8.20;100.00;98140.94;5076823;28;20185;-74
2023/10/17 09:16:34;;;;;;;10.63;7.83;;;;;;;8.27;100.00;98147.88;5076384;28;20566;-74
2023/10/17 09:19:09;;;;;;;10.70;8.10;;;;;;;8.39;100.00;98143.63;5076179;28;20327;-74
2023/10/17 09:21:41;;;;;;;9.73;8.30;;;;;;;8.44;100.00;98141.19;5076351;28;20196;-74
2023/10/17 09:24:29;;;;;;;10.13;8.50;;;;;;;8.61;100.00;98136.28;5076635;28;20299;-74
2023/10/17 09:26:56;;;;;;;12.00;7.93;;;;;;;8.81;100.00;98137.91;5076436;28;20185;-74
2023/10/17 09:29:27;;;;;;;13.63;8.47;;;;;;;8.65;100.00;98135.66;5075988;28;20681;-74
2023/10/17 09:31:54;;;;;;;12.10;8.57;;;;;;;8.81;100.00;98137.09;5077127;28;20220;-74
2023/10/17 09:34:25;;;;;;;11.20;7.47;;;;;;;8.87;100.00;98131.78;5076673;28;20546;-75
2023/10/17 09:36:55;;;;;;;11.57;8.20;;;;;;;8.95;100.00;98136.03;5076358;28;20195;-74
2023/10/17 09:39:27;;;;;;;11.37;8.37;;;;;;;8.91;100.00;98140.16;5076266;28;20215;-74
2023/10/17 09:41:53;;;;;;;11.37;8.43;;;;;;;8.97;100.00;98131.38;5076395;28;20193;-75
2023/10/17 09:44:20;;;;;;;10.10;7.57;;;;;;;8.99;100.00;98137.25;5076486;28;20200;-75
2023/10/17 09:46:50;;;;;;;12.70;7.63;;;;;;;9.03;100.00;98138.50;5075736;28;20263;-75
2023/10/17 09:49:21;;;;;;;11.47;8.00;;;;;;;9.01;100.00;98140.53;5075852;28;20208;-75
2023/10/17 09:51:48;;;;;;;9.90;7.60;;;;;;;9.10;100.00;98145.41;5075903;28;20188;-75
2023/10/17 09:54:22;;;;;;;10.93;8.50;;;;;;;9.25;100.00;98147.81;5076176;28;20208;-75
2023/10/17 09:56:50;;;;;;;10.40;7.50;;;;;;;9.23;100.00;98153.34;5075766;28;20191;-75
2023/10/17 09:59:26;;;;;;;9.90;7.90;;;;;;;9.34;100.00;98150.06;5075461;28;20200;-75
2023/10/17 10:01:56;;;;;;;9.50;7.53;;;;;;;9.75;100.00;98150.50;5076036;28;20543;-75
2023/10/17 10:04:23;;;;;;;8.53;7.63;;;;;;;9.71;100.00;98143.16;5076023;28;20251;-75
2023/10/17 10:06:50;;;;;;;8.83;7.93;;;;;;;9.59;100.00;98147.53;5076210;28;20218;-75
2023/10/17 10:09:19;;;;;;;9.00;7.70;;;;;;;9.61;100.00;98145.47;5075654;28;20573;-75
2023/10/17 10:11:51;;;;;;;12.23;7.90;;;;;;;9.43;100.00;98140.00;5076305;28;20544;-75
2023/10/17 10:14:24;;;;;;;11.07;7.70;;;;;;;9.64;100.00;98148.50;5074759;28;20685;-75
2023/10/17 10:16:53;;;;;;;10.93;7.97;;;;;;;9.55;100.00;98154.28;5075355;28;20244;-75
2023/10/17 10:19:21;;;;;;;8.83;7.93;;;;;;;9.61;100.00;98140.16;5075802;28;20680;-75
2023/10/17 10:21:59;;;;;;;8.97;7.70;;;;;;;9.57;100.00;98138.94;5075599;28;20254;-74
2023/10/17 10:24:31;;;;;;;12.07;8.00;;;;;;;9.85;100.00;98140.25;5075375;28;20196;-75
2023/10/17 10:27:14;;;;;;;9.53;7.87;;;;;;;9.69;100.00;98146.03;5075400;28;20211;-75
2023/10/17 10:29:41;;;;;;;10.27;7.97;;;;;;;9.75;100.00;98139.06;5076594;28;20213;-75
2023/10/17 10:32:31;;;;;;;10.97;7.53;;;;;;;10.24;98.83;98131.25;5075446;28;20211;-75
2023/10/17 10:34:57;;;;;;;8.40;7.57;;;;;;;9.96;100.00;98139.56;5075388;28;20212;-75
2023/10/17 10:37:24;;;;;;;8.90;8.07;;;;;;;9.92;99.02;98135.69;5075316;28;20319;-77
2023/10/17 10:40:16;;;;;;;11.20;8.30;;;;;;;9.91;99.12;98128.75;5075319;28;20274;-76
2023/10/17 10:42:50;;;;;;;10.90;8.47;;;;;;;10.04;100.00;98123.41;5075084;28;20185;-77
2023/10/17 10:45:47;;;;;;;10.27;8.50;;;;;;;10.15;99.57;98124.56;5075128;28;20192;-78
2023/10/17 10:48:15;;;;;;;10.20;8.37;;;;;;;10.36;95.78;98122.38;5073198;28;20232;-75
2023/10/17 10:50:48;;;;;;;9.63;8.43;;;;;;;9.93;100.00;98118.75;5075327;28;20258;-76
2023/10/17 10:53:33;;;;;;;9.80;8.60;;;;;;;10.09;99.74;98123.59;5074404;28;20514;-76
2023/10/17 10:56:11;;;;;;;9.57;8.10;;;;;;;10.10;100.00;98119.09;5074616;28;20671;-76
2023/10/17 10:58:51;;;;;;;10.57;7.67;;;;;;;10.16;98.66;98124.38;5074857;28;20231;-76
2023/10/17 11:01:18;;;;;;;9.03;8.23;;;;;;;10.55;98.59;98128.59;5074400;28;20762;-76
2023/10/17 11:03:46;;;;;;;9.43;8.43;;;;;;;10.23;100.00;98127.78;5075308;28;20205;-76
2023/10/17 11:06:14;;;;;;;9.87;8.03;;;;;;;10.16;99.98;98120.88;5075428;28;20208;-76
2023/10/17 11:08:47;;;;;;;9.53;8.57;;;;;;;10.63;99.20;98120.31;5074773;28;20323;-76
2023/10/17 11:11:14;;;;;;;9.90;8.90;;;;;;;10.50;100.00;98121.25;5074378;28;20734;-76
2023/10/17 11:13:45;;;;;;;10.10;8.40;;;;;;;10.35;97.45;98115.44;5074331;28;20215;-76
2023/10/17 11:16:12;;;;;;;9.67;8.63;;;;;;;10.76;95.75;98112.22;5074482;28;20555;-76
2023/10/17 11:18:43;;;;;;;9.90;8.13;;;;;;;10.70;97.01;98116.59;5074139;28;20593;-76
2023/10/17 11:21:10;;;;;;;9.73;8.70;;;;;;;10.65;97.23;98113.78;5073974;28;20673;-76
2023/10/17 11:23:40;;;;;;;9.93;8.77;;;;;;;10.73;98.10;98118.78;5074123;28;20547;-76
2023/10/17 11:26:09;;;;;;;10.30;8.97;;;;;;;10.85;95.20;98122.38;5073432;28;20536;-76
2023/10/17 11:28:41;;;;;;;11.43;9.07;;;;;;;10.99;96.71;98110.56;5074201;28;20256;-76
2023/10/17 11:31:13;;;;;;;10.43;9.27;;;;;;;11.22;96.37;98101.97;5074818;28;20278;-76
2023/10/17 11:33:45;;;;;;;9.97;8.80;;;;;;;10.83;95.03;98105.00;5074532;28;20622;-76
2023/10/17 11:36:18;;;;;;;9.43;8.53;;;;;;;10.88;95.49;98095.34;5073807;28;20189;-76
2023/10/17 11:38:46;;;;;;;9.50;8.07;;;;;;;11.19;95.22;98084.56;5074152;28;20232;-76
2023/10/17 11:41:17;;;;;;;9.13;7.87;;;;;;;11.07;96.10;98089.00;5073392;28;20640;-76
2023/10/17 11:43:51;;;;;;;10.63;9.20;;;;;;;11.26;96.21;98084.47;5073985;28;20275;-76
2023/10/17 11:46:34;;;;;;;9.23;8.27;;;;;;;11.32;94.51;98075.63;5074029;28;20201;-76
2023/10/17 11:49:21;;;;;;;8.90;8.00;;;;;;;11.24;93.76;98075.94;5073542;28;20232;-76
2023/10/17 11:51:59;;;;;;;9.47;8.57;;;;;;;11.13;95.27;98074.81;5073755;28;20224;-76
2023/10/17 11:54:26;;;;;;;10.93;8.20;;;;;;;11.35;92.56;98077.81;5073869;28;20189;-76
2023/10/17 11:56:52;;;;;;;9.37;8.20;;;;;;;11.17;94.45;98077.84;5073866;28;20210;-76
2023/10/17 11:59:19;;;;;;;8.70;7.90;;;;;;;11.14;95.67;98079.09;5073576;28;20686;-76
2023/10/17 12:01:48;;;;;;;9.37;8.33;;;;;;;11.44;93.31;98075.69;5073291;28;20230;-76
2023/10/17 12:04:16;;;;;;;9.63;8.40;;;;;;;11.25;94.86;98063.44;5073683;28;20295;-76
2023/10/17 12:06:44;;;;;;;10.70;8.43;;;;;;;11.33;95.08;98061.28;5073651;28;20201;-76
2023/10/17 12:09:18;;;;;;;8.83;7.97;;;;;;;11.30;94.74;98061.72;5073536;28;20279;-76
2023/10/17 12:11:47;;;;;;;9.13;8.13;;;;;;;11.50;94.52;98061.47;5073500;28;20213;-76
2023/10/17 12:14:20;;;;;;;9.10;8.20;;;;;;;11.72;91.74;98054.66;5073464;28;20210;-76
2023/10/17 12:16:49;;;;;;;8.73;7.93;;;;;;;11.70;91.91;98062.88;5073345;28;20190;-76
2023/10/17 12:19:18;;;;;;;10.27;8.53;;;;;;;11.73;92.34;98051.78;5073008;28;20283;-77
2023/10/17 12:21:48;;;;;;;9.30;8.30;;;;;;;11.96;89.99;98048.38;5073287;28;20265;-76
2023/10/17 12:24:24;;;;;;;8.93;8.03;;;;;;;11.59;92.24;98042.31;5072384;28;20211;-76
2023/10/17 12:26:51;;;;;;;8.63;7.80;;;;;;;11.51;93.17;98045.28;5072996;28;20201;-76
2023/10/17 12:29:19;;;;;;;9.27;8.30;;;;;;;11.73;92.51;98033.13;5072842;28;20212;-75
2023/10/17 12:31:46;;;;;;;9.57;8.10;;;;;;;11.58;95.64;98026.56;5073329;28;20661;-75
2023/10/17 12:34:15;;;;;;;11.17;8.43;;;;;;;11.49;93.69;98034.03;5073334;28;20214;-76
2023/10/17 12:36:42;;;;;;;9.13;8.07;;;;;;;11.52;94.21;98030.13;5072564;28;20731;-76
2023/10/17 12:39:08;;;;;;;9.23;8.37;;;;;;;11.59;94.07;98021.03;5073010;28;20226;-76
2023/10/17 12:41:35;;;;;;;10.17;8.93;;;;;;;11.59;95.49;98023.69;5073017;28;20270;-76
2023/10/17 12:44:03;;;;;;;8.97;7.87;;;;;;;11.57;94.30;98015.09;5072863;28;20211;-76
2023/10/17 12:46:30;;;;;;;10.30;8.80;;;;;;;11.62;94.43;98012.59;5072739;28;20731;-76
2023/10/17 12:48:57;;;;;;;9.00;8.10;;;;;;;11.70;93.45;98014.16;5072750;28;20239;-76
2023/10/17 12:51:24;;;;;;;10.00;8.50;;;;;;;11.59;94.05;98010.38;5073057;28;20681;-76
2023/10/17 12:53:50;;;;;;;9.80;8.10;;;;;;;11.67;93.78;98012.72;5073663;28;20247;-76
2023/10/17 12:56:18;;;;;;;8.77;7.97;;;;;;;11.68;93.24;98014.38;5072780;28;20203;-76
2023/10/17 12:58:45;;;;;;;9.40;8.43;;;;;;;11.64;94.51;98013.19;5072899;28;20224;-76
2023/10/17 13:01:12;;;;;;;8.70;7.90;;;;;;;11.58;94.67;98016.72;5072728;28;20724;-76
2023/10/17 13:03:39;;;;;;;10.77;8.73;;;;;;;11.61;95.12;98007.53;5073303;28;20229;-76
2023/10/17 13:06:09;;;;;;;10.57;8.33;;;;;;;11.74;95.68;98016.13;5073494;28;20209;-76
2023/10/17 13:08:36;;;;;;;9.07;8.17;;;;;;;11.82;93.83;98015.81;5073277;28;20285;-76
2023/10/17 13:11:03;;;;;;;10.33;8.23;;;;;;;11.79;94.21;98013.56;5072982;28;20240;-76
2023/10/17 13:13:31;;;;;;;9.43;8.23;;;;;;;11.73;95.13;98009.16;5072566;28;20658;-76